Time;durP1;ratioP1;P1;durP2;ratioP2;P2;SDS_P1;SDS_P2;PMS_P1;PMS_P2;Temp;Humidity;BMP_temperature;BMP_pressure;BME280_temperature;BME280_humidity;BME280_pressure;Samples;Min_cycle;Max_cycle;Signal;HPM_P1;HPM_P2
2023/08/13 00:00:46;;;;;;;0.10;0.10;;;13.90;57.40;;;;;;5073016;28;20195;-60
2023/08/13 00:03:16;;;;;;;0.10;0.10;;;14.00;57.40;;;;;;5073268;28;20717;-60
2023/08/13 00:05:49;;;;;;;0.10;0.10;;;14.00;57.40;;;;;;5073225;28;20203;-63
2023/08/13 00:08:22;;;;;;;0.10;0.10;;;14.00;57.40;;;;;;5073456;28;20614;-62
2023/08/13 00:10:52;;;;;;;0.10;0.10;;;14.10;57.40;;;;;;5072566;28;20590;-60
2023/08/13 00:13:23;;;;;;;0.10;0.10;;;14.10;57.40;;;;;;5055071;28;20257;-62
2023/08/13 00:15:54;;;;;;;0.10;0.10;;;14.10;57.40;;;;;;5071158;28;20198;-60
2023/08/13 00:18:24;;;;;;;0.10;0.10;;;14.20;57.50;;;;;;5072244;28;20191;-59
2023/08/13 00:20:55;;;;;;;0.00;0.00;;;14.20;57.40;;;;;;5072646;28;20206;-60
2023/08/13 00:23:27;;;;;;;0.10;0.10;;;14.20;58.00;;;;;;5072362;28;20233;-62
2023/08/13 00:25:58;;;;;;;0.10;0.10;;;14.30;57.50;;;;;;5072554;28;20230;-62
2023/08/13 00:28:29;;;;;;;0.10;0.10;;;14.30;57.50;;;;;;5072840;28;20213;-60
2023/08/13 00:30:59;;;;;;;0.10;0.10;;;14.40;57.50;;;;;;5072923;28;20198;-62
2023/08/13 00:33:30;;;;;;;0.20;0.20;;;14.40;57.50;;;;;;5072642;28;20195;-61
2023/08/13 00:36:00;;;;;;;0.10;0.10;;;14.40;57.50;;;;;;5072500;28;20276;-61
2023/08/13 00:38:33;;;;;;;0.10;0.10;;;14.40;57.50;;;;;;5072581;28;20195;-60
2023/08/13 00:41:04;;;;;;;0.08;0.08;;;14.50;57.60;;;;;;5071869;28;20198;-61
2023/08/13 00:43:34;;;;;;;0.10;0.10;;;14.50;57.50;;;;;;5071987;28;20241;-59
2023/08/13 00:46:06;;;;;;;0.10;0.10;;;14.50;57.50;;;;;;5072004;28;20584;-61
2023/08/13 00:48:38;;;;;;;0.10;0.10;;;14.60;57.60;;;;;;5071983;28;20239;-60
2023/08/13 00:51:12;;;;;;;0.10;0.10;;;14.60;57.60;;;;;;5071813;28;20199;-61
2023/08/13 00:53:48;;;;;;;0.10;0.10;;;14.60;57.60;;;;;;5072041;28;20199;-60
2023/08/13 00:56:20;;;;;;;0.10;0.10;;;14.70;57.60;;;;;;5071597;28;20635;-60
2023/08/13 00:58:51;;;;;;;0.10;0.10;;;14.70;57.60;;;;;;5071889;28;20198;-60
2023/08/13 01:01:22;;;;;;;0.10;0.10;;;14.70;57.60;;;;;;5072097;28;20222;-61
2023/08/13 01:03:52;;;;;;;0.10;0.10;;;14.80;57.60;;;;;;5072095;28;20219;-61
2023/08/13 01:06:29;;;;;;;0.10;0.10;;;14.80;57.60;;;;;;5072038;28;20226;-61
2023/08/13 01:09:08;;;;;;;0.10;0.10;;;14.80;57.60;;;;;;5072247;28;20221;-63
2023/08/13 01:11:48;;;;;;;0.10;0.10;;;14.90;57.60;;;;;;5071931;28;20194;-60
2023/08/13 01:14:29;;;;;;;0.10;0.10;;;14.90;57.50;;;;;;5071858;28;20360;-61
2023/08/13 01:17:02;;;;;;;0.10;0.10;;;15.00;57.50;;;;;;5071718;28;20620;-61
2023/08/13 01:19:33;;;;;;;0.10;0.10;;;15.00;57.50;;;;;;5071763;28;20205;-61
2023/08/13 01:22:05;;;;;;;0.03;0.03;;;15.00;57.50;;;;;;5071640;28;20187;-60
2023/08/13 01:24:37;;;;;;;0.08;0.08;;;15.10;57.50;;;;;;5071639;28;20230;-61
2023/08/13 01:27:15;;;;;;;0.10;0.10;;;15.10;57.50;;;;;;5071538;28;20220;-60
2023/08/13 01:29:51;;;;;;;0.00;0.00;;;15.10;57.50;;;;;;5070837;28;20252;-60
2023/08/13 01:32:23;;;;;;;0.00;0.00;;;15.20;57.50;;;;;;5051489;28;20202;-63
2023/08/13 01:34:55;;;;;;;0.05;0.05;;;15.20;57.40;;;;;;5051189;28;20204;-63
2023/08/13 01:37:25;;;;;;;0.10;0.10;;;15.30;57.50;;;;;;5051481;28;20219;-61
2023/08/13 01:39:58;;;;;;;0.10;0.10;;;15.30;58.00;;;;;;5051751;28;20199;-61
2023/08/13 01:42:29;;;;;;;0.10;0.10;;;15.30;57.40;;;;;;5051597;28;20202;-60
2023/08/13 01:44:59;;;;;;;0.10;0.10;;;15.40;57.40;;;;;;5051451;28;20226;-62
2023/08/13 01:47:30;;;;;;;0.00;0.00;;;15.40;57.30;;;;;;5051460;28;20222;-63
2023/08/13 01:50:00;;;;;;;0.05;0.05;;;15.40;57.30;;;;;;5051982;28;20195;-62
2023/08/13 01:52:31;;;;;;;0.10;0.10;;;15.40;57.20;;;;;;5051607;28;20200;-62
2023/08/13 01:55:04;;;;;;;0.10;0.10;;;15.50;57.20;;;;;;5051796;28;20234;-64
2023/08/13 01:57:36;;;;;;;0.10;0.10;;;15.50;57.30;;;;;;5050872;28;20691;-60
2023/08/13 02:00:07;;;;;;;0.10;0.10;;;15.50;57.20;;;;;;5051195;28;20195;-62
2023/08/13 02:02:38;;;;;;;0.10;0.10;;;15.50;57.20;;;;;;5051619;28;20289;-61
2023/08/13 02:05:09;;;;;;;0.10;0.10;;;15.60;57.20;;;;;;5051706;28;20234;-63
2023/08/13 02:07:40;;;;;;;0.10;0.10;;;15.60;57.10;;;;;;5053418;28;20215;-59
2023/08/13 02:10:13;;;;;;;0.10;0.10;;;15.70;57.20;;;;;;5054571;28;20890;-60
2023/08/13 02:12:43;;;;;;;0.10;0.10;;;15.70;57.10;;;;;;5070708;28;20223;-61
2023/08/13 02:15:14;;;;;;;0.10;0.10;;;15.70;57.10;;;;;;5071137;28;20233;-61
2023/08/13 02:17:45;;;;;;;0.10;0.10;;;15.80;57.10;;;;;;5071279;28;20246;-63
2023/08/13 02:20:16;;;;;;;0.05;0.05;;;15.80;57.00;;;;;;5071503;28;20646;-61
2023/08/13 02:22:46;;;;;;;0.10;0.10;;;15.80;57.00;;;;;;5070805;28;20187;-62
2023/08/13 02:25:19;;;;;;;0.10;0.10;;;15.90;56.90;;;;;;5070638;28;20604;-60
2023/08/13 02:27:49;;;;;;;0.10;0.10;;;15.90;56.80;;;;;;5070968;28;20219;-60
2023/08/13 02:30:20;;;;;;;0.10;0.10;;;15.90;56.70;;;;;;5071197;28;20203;-61
2023/08/13 02:32:51;;;;;;;0.17;0.17;;;16.00;56.60;;;;;;5071125;28;20230;-63
2023/08/13 02:35:21;;;;;;;0.10;0.10;;;16.00;56.50;;;;;;5070669;28;20191;-61
2023/08/13 02:37:52;;;;;;;0.10;0.10;;;16.00;56.40;;;;;;5070858;28;20215;-63
2023/08/13 02:40:24;;;;;;;0.10;0.10;;;16.00;56.30;;;;;;5071033;28;20648;-62
2023/08/13 02:42:55;;;;;;;0.10;0.10;;;16.00;56.20;;;;;;5070875;28;20213;-60
2023/08/13 02:45:26;;;;;;;0.10;0.10;;;16.10;56.20;;;;;;5070791;28;20202;-62
2023/08/13 02:47:57;;;;;;;0.10;0.10;;;16.10;56.10;;;;;;5072604;28;20215;-59
2023/08/13 02:50:27;;;;;;;0.10;0.10;;;16.10;56.10;;;;;;5074447;28;20226;-63
2023/08/13 02:52:58;;;;;;;0.10;0.10;;;16.20;56.10;;;;;;5074083;28;20202;-64
2023/08/13 02:55:30;;;;;;;0.00;0.00;;;16.20;56.10;;;;;;5073989;28;20194;-62
2023/08/13 02:58:01;;;;;;;0.10;0.10;;;16.20;56.00;;;;;;5074142;28;20272;-63
2023/08/13 03:00:32;;;;;;;0.10;0.10;;;16.30;56.10;;;;;;5074402;28;20195;-61
2023/08/13 03:03:02;;;;;;;0.10;0.10;;;16.30;55.90;;;;;;5074100;28;20195;-62
2023/08/13 03:05:33;;;;;;;0.10;0.10;;;16.30;55.20;;;;;;5074104;28;20719;-63
2023/08/13 03:08:07;;;;;;;0.10;0.10;;;16.40;54.60;;;;;;5074583;28;20222;-61
2023/08/13 03:10:40;;;;;;;0.10;0.10;;;16.40;54.10;;;;;;5074365;28;20210;-62
2023/08/13 03:13:10;;;;;;;0.00;0.00;;;16.40;53.90;;;;;;5074094;28;20202;-59
2023/08/13 03:15:41;;;;;;;0.10;0.10;;;16.40;53.60;;;;;;5072218;28;20195;-61
2023/08/13 03:18:11;;;;;;;0.10;0.10;;;16.40;53.50;;;;;;5053441;28;20200;-60
2023/08/13 03:20:42;;;;;;;0.10;0.10;;;16.40;53.50;;;;;;5053863;28;20643;-58
2023/08/13 03:23:13;;;;;;;0.10;0.10;;;16.50;53.60;;;;;;5058554;28;20198;-60
2023/08/13 03:25:45;;;;;;;0.10;0.10;;;16.50;53.70;;;;;;5073081;28;20191;-61
2023/08/13 03:28:16;;;;;;;0.10;0.10;;;16.50;53.80;;;;;;5073648;28;20198;-61
2023/08/13 03:30:46;;;;;;;0.10;0.10;;;16.50;53.80;;;;;;5073766;28;20202;-59
2023/08/13 03:33:17;;;;;;;0.10;0.10;;;16.50;53.80;;;;;;5072735;28;20670;-61
2023/08/13 03:35:48;;;;;;;0.00;0.00;;;16.50;53.80;;;;;;5073653;28;20559;-63
2023/08/13 03:38:19;;;;;;;0.10;0.10;;;16.60;53.80;;;;;;5073592;28;20264;-60
2023/08/13 03:40:55;;;;;;;0.10;0.10;;;16.60;53.80;;;;;;5073610;28;20195;-61
2023/08/13 03:43:26;;;;;;;0.10;0.10;;;16.60;53.80;;;;;;5073458;28;20700;-63
2023/08/13 03:45:56;;;;;;;0.10;0.10;;;16.60;53.70;;;;;;5070640;28;20673;-62
2023/08/13 03:48:27;;;;;;;0.10;0.10;;;16.60;53.60;;;;;;5067361;28;20321;-64
2023/08/13 03:50:57;;;;;;;0.10;0.10;;;16.60;53.70;;;;;;5072310;28;20198;-62
2023/08/13 03:53:28;;;;;;;0.05;0.05;;;16.60;53.60;;;;;;5071647;28;20195;-61
2023/08/13 03:56:01;;;;;;;0.10;0.10;;;16.50;53.50;;;;;;5072380;28;20572;-60
2023/08/13 03:58:34;;;;;;;0.10;0.10;;;16.60;53.50;;;;;;5071452;28;20249;-61
2023/08/13 04:01:08;;;;;;;0.10;0.10;;;16.60;53.40;;;;;;5071965;28;20256;-63
2023/08/13 04:03:39;;;;;;;0.10;0.10;;;16.60;53.40;;;;;;5072329;28;20235;-61
2023/08/13 04:06:09;;;;;;;0.10;0.10;;;16.60;53.40;;;;;;5072085;28;20230;-62
2023/08/13 04:08:40;;;;;;;0.10;0.10;;;16.60;53.40;;;;;;5072353;28;20191;-60
2023/08/13 04:11:13;;;;;;;0.00;0.00;;;16.60;53.40;;;;;;5073049;28;20202;-61
2023/08/13 04:13:43;;;;;;;0.10;0.10;;;16.60;53.40;;;;;;5067248;28;20197;-60
2023/08/13 04:16:14;;;;;;;0.10;0.10;;;16.60;53.40;;;;;;5070936;28;20241;-63
2023/08/13 04:18:44;;;;;;;0.10;0.10;;;16.60;53.40;;;;;;5071697;28;20814;-59
2023/08/13 04:21:15;;;;;;;0.10;0.10;;;16.60;53.40;;;;;;5071773;28;20206;-61
2023/08/13 04:23:46;;;;;;;0.00;0.00;;;16.60;53.50;;;;;;5071766;28;20194;-61
2023/08/13 04:26:18;;;;;;;0.10;0.10;;;16.60;53.40;;;;;;5071491;28;20233;-61
2023/08/13 04:28:49;;;;;;;0.10;0.10;;;16.60;53.40;;;;;;5071923;28;20637;-60
2023/08/13 04:31:20;;;;;;;0.10;0.10;;;16.60;53.40;;;;;;5071613;28;20643;-61
2023/08/13 04:33:50;;;;;;;0.20;0.20;;;16.70;53.50;;;;;;5071175;28;20187;-61
2023/08/13 04:36:21;;;;;;;0.10;0.10;;;16.70;53.50;;;;;;5071071;28;20264;-60
2023/08/13 04:38:52;;;;;;;0.10;0.10;;;16.60;53.50;;;;;;5072250;28;20545;-63
2023/08/13 04:41:24;;;;;;;0.10;0.10;;;16.70;53.60;;;;;;5071949;28;20198;-62
2023/08/13 04:43:55;;;;;;;0.10;0.10;;;16.70;53.60;;;;;;5071523;28;20183;-61
2023/08/13 04:46:25;;;;;;;0.10;0.10;;;16.70;53.80;;;;;;5071325;28;20284;-59
2023/08/13 04:48:56;;;;;;;0.10;0.10;;;16.70;53.80;;;;;;5071317;28;20201;-63
2023/08/13 04:51:27;;;;;;;0.10;0.10;;;16.70;53.90;;;;;;5071555;28;20674;-63
2023/08/13 04:53:57;;;;;;;0.10;0.10;;;16.70;53.80;;;;;;5071280;28;20199;-61
2023/08/13 04:56:30;;;;;;;0.15;0.15;;;16.80;53.80;;;;;;5070929;28;20222;-62
2023/08/13 04:59:00;;;;;;;0.10;0.10;;;16.70;53.80;;;;;;5071304;28;20198;-61
2023/08/13 05:01:31;;;;;;;0.00;0.00;;;16.80;53.80;;;;;;5071170;28;20203;-62
2023/08/13 05:04:01;;;;;;;0.10;0.10;;;16.80;53.80;;;;;;5071252;28;20194;-61
2023/08/13 05:06:32;;;;;;;0.10;0.10;;;16.80;53.90;;;;;;5070902;28;20249;-63
2023/08/13 05:09:03;;;;;;;0.03;0.03;;;16.80;54.00;;;;;;5071421;28;20198;-61
2023/08/13 05:11:35;;;;;;;0.10;0.10;;;16.80;53.90;;;;;;5069780;28;20191;-59
2023/08/13 05:14:06;;;;;;;0.10;0.10;;;16.80;53.90;;;;;;5071364;28;20194;-60
2023/08/13 05:16:37;;;;;;;0.10;0.10;;;16.80;53.90;;;;;;5070427;28;20266;-63
2023/08/13 05:19:07;;;;;;;0.10;0.10;;;16.80;53.90;;;;;;5075379;28;20428;-62
2023/08/13 05:21:38;;;;;;;0.10;0.10;;;16.80;54.00;;;;;;5091526;28;20194;-61
2023/08/13 05:24:09;;;;;;;0.10;0.10;;;16.80;54.00;;;;;;5078111;28;20661;-59
2023/08/13 05:26:42;;;;;;;0.00;0.00;;;16.80;54.00;;;;;;5071398;28;20626;-61
2023/08/13 05:29:13;;;;;;;0.10;0.10;;;16.90;54.10;;;;;;5070221;28;20191;-63
2023/08/13 05:31:43;;;;;;;0.20;0.20;;;16.90;54.10;;;;;;5070585;28;20256;-61
2023/08/13 05:34:14;;;;;;;0.03;0.03;;;16.80;54.10;;;;;;5070619;28;20199;-63
2023/08/13 05:36:45;;;;;;;0.10;0.10;;;16.90;54.20;;;;;;5070965;28;20580;-62
2023/08/13 05:39:15;;;;;;;0.00;0.00;;;16.90;54.20;;;;;;5070794;28;20236;-60
2023/08/13 05:41:48;;;;;;;0.10;0.10;;;16.90;54.20;;;;;;5071720;28;20581;-62
2023/08/13 05:44:18;;;;;;;0.00;0.00;;;16.90;54.20;;;;;;5071036;28;20670;-64
2023/08/13 05:46:49;;;;;;;0.10;0.10;;;16.90;54.20;;;;;;5070310;28;20576;-60
2023/08/13 05:49:20;;;;;;;0.10;0.10;;;16.90;54.20;;;;;;5070858;28;20183;-62
2023/08/13 05:51:50;;;;;;;0.10;0.10;;;16.90;54.20;;;;;;5070239;28;20199;-62
2023/08/13 05:54:21;;;;;;;0.08;0.08;;;16.90;54.10;;;;;;5071791;28;20217;-60
2023/08/13 05:56:54;;;;;;;0.10;0.10;;;16.90;54.10;;;;;;5069964;28;20215;-60
2023/08/13 05:59:24;;;;;;;0.10;0.10;;;16.90;54.00;;;;;;5071048;28;20678;-61
2023/08/13 06:01:55;;;;;;;0.10;0.10;;;16.90;54.10;;;;;;5071072;28;20791;-60
2023/08/13 06:04:26;;;;;;;0.10;0.10;;;16.90;54.10;;;;;;5070434;28;20226;-60
2023/08/13 06:06:56;;;;;;;0.10;0.10;;;16.90;54.20;;;;;;5070444;28;20225;-59
2023/08/13 06:09:27;;;;;;;0.10;0.10;;;16.90;54.20;;;;;;5071809;28;20214;-59
2023/08/13 06:11:59;;;;;;;0.10;0.10;;;16.90;54.30;;;;;;5064690;28;20659;-58
2023/08/13 06:14:30;;;;;;;0.10;0.10;;;16.90;54.30;;;;;;5054413;28;20217;-64
2023/08/13 06:17:01;;;;;;;0.10;0.10;;;16.90;54.30;;;;;;5071092;28;20211;-59
2023/08/13 06:19:31;;;;;;;0.05;0.05;;;16.90;54.30;;;;;;5070797;28;20187;-61
2023/08/13 06:22:02;;;;;;;0.10;0.10;;;16.90;54.30;;;;;;5073397;28;20206;-59
2023/08/13 06:24:33;;;;;;;0.05;0.05;;;16.90;54.30;;;;;;5074506;28;20223;-61
2023/08/13 06:27:05;;;;;;;0.10;0.10;;;16.90;54.30;;;;;;5074320;28;20223;-60
2023/08/13 06:29:36;;;;;;;0.10;0.10;;;16.90;54.90;;;;;;5074057;28;20194;-59
2023/08/13 06:32:06;;;;;;;0.10;0.10;;;16.90;54.30;;;;;;5074505;28;20191;-61
2023/08/13 06:34:37;;;;;;;0.10;0.10;;;16.90;54.30;;;;;;5074240;28;20534;-58
2023/08/13 06:37:08;;;;;;;0.00;0.00;;;16.90;54.30;;;;;;5074278;28;20226;-61
2023/08/13 06:39:38;;;;;;;0.10;0.10;;;16.90;54.30;;;;;;5073097;28;20190;-60
2023/08/13 06:42:11;;;;;;;0.10;0.10;;;16.90;54.30;;;;;;5073663;28;20199;-59
2023/08/13 06:44:41;;;;;;;0.10;0.10;;;16.90;54.20;;;;;;5074374;28;20214;-60
2023/08/13 06:47:12;;;;;;;0.10;0.10;;;16.90;54.20;;;;;;5073921;28;20649;-61
2023/08/13 06:49:43;;;;;;;0.10;0.10;;;16.90;54.30;;;;;;5074512;28;20193;-59
2023/08/13 06:52:14;;;;;;;0.10;0.10;;;16.90;54.30;;;;;;5073482;28;20198;-61
2023/08/13 06:54:44;;;;;;;0.10;0.10;;;16.90;54.30;;;;;;5073936;28;20190;-59
2023/08/13 06:57:17;;;;;;;0.10;0.10;;;16.90;54.30;;;;;;5073761;28;20530;-59
2023/08/13 06:59:48;;;;;;;0.10;0.10;;;16.90;54.30;;;;;;5073124;28;20198;-59
2023/08/13 07:02:18;;;;;;;0.10;0.10;;;16.90;54.30;;;;;;5074281;28;20199;-58
2023/08/13 07:04:49;;;;;;;0.10;0.10;;;16.80;54.20;;;;;;5073637;28;20217;-61
2023/08/13 07:07:19;;;;;;;0.08;0.08;;;16.80;54.20;;;;;;5073294;28;20226;-60
2023/08/13 07:09:50;;;;;;;0.00;0.00;;;16.80;54.20;;;;;;5074311;28;20238;-59
2023/08/13 07:12:22;;;;;;;0.10;0.10;;;16.80;54.20;;;;;;5073555;28;20198;-59
2023/08/13 07:14:55;;;;;;;0.05;0.05;;;16.80;54.20;;;;;;5072672;28;20186;-61
2023/08/13 07:17:26;;;;;;;0.00;0.00;;;16.80;54.20;;;;;;5073127;28;20218;-60
2023/08/13 07:19:56;;;;;;;0.05;0.05;;;16.80;54.20;;;;;;5073637;28;20191;-59
2023/08/13 07:22:27;;;;;;;0.00;0.00;;;16.80;54.20;;;;;;5074062;28;20277;-61
2023/08/13 07:24:58;;;;;;;0.10;0.10;;;16.80;54.20;;;;;;5072112;28;20297;-61
2023/08/13 07:27:30;;;;;;;0.10;0.10;;;16.80;54.20;;;;;;5052620;28;20261;-62
2023/08/13 07:30:01;;;;;;;0.10;0.10;;;16.80;54.20;;;;;;5056299;28;20560;-60
2023/08/13 07:32:32;;;;;;;0.10;0.10;;;16.80;54.20;;;;;;5071911;28;20203;-59
2023/08/13 07:35:03;;;;;;;0.10;0.10;;;16.80;54.20;;;;;;5072990;28;20195;-58
2023/08/13 07:37:33;;;;;;;0.10;0.10;;;16.80;54.20;;;;;;5072302;28;20222;-59
2023/08/13 07:40:07;;;;;;;0.00;0.00;;;16.70;54.20;;;;;;5072647;28;20703;-59
2023/08/13 07:42:40;;;;;;;0.10;0.10;;;16.70;54.20;;;;;;5073254;28;20214;-58
2023/08/13 07:45:11;;;;;;;0.00;0.00;;;16.70;54.20;;;;;;5072594;28;20231;-59
2023/08/13 07:47:42;;;;;;;0.10;0.10;;;16.70;54.20;;;;;;5073631;28;20506;-58
2023/08/13 07:50:13;;;;;;;0.00;0.00;;;16.70;54.20;;;;;;5073483;28;20198;-60
2023/08/13 07:52:43;;;;;;;0.10;0.10;;;16.60;54.10;;;;;;5073429;28;20230;-59
2023/08/13 07:55:14;;;;;;;0.00;0.00;;;16.70;54.20;;;;;;5073692;28;20235;-59
2023/08/13 07:57:46;;;;;;;0.10;0.10;;;16.70;54.20;;;;;;5073194;28;20211;-60
2023/08/13 08:00:17;;;;;;;0.10;0.10;;;16.70;54.20;;;;;;5072724;28;20194;-60
2023/08/13 08:02:48;;;;;;;0.00;0.00;;;16.60;54.10;;;;;;5073146;28;20245;-60
2023/08/13 08:05:19;;;;;;;0.10;0.10;;;16.60;54.10;;;;;;5072589;28;20218;-59
2023/08/13 08:07:50;;;;;;;0.10;0.10;;;16.60;54.10;;;;;;5072094;28;20210;-61
2023/08/13 08:10:20;;;;;;;0.10;0.10;;;16.60;54.10;;;;;;5072234;28;20647;-59
2023/08/13 08:12:53;;;;;;;0.10;0.10;;;16.60;54.10;;;;;;5073195;28;20586;-61
2023/08/13 08:15:24;;;;;;;0.10;0.10;;;16.60;54.10;;;;;;5071075;28;20690;-59
2023/08/13 08:17:54;;;;;;;0.10;0.10;;;16.60;54.20;;;;;;5072724;28;20218;-61
2023/08/13 08:20:25;;;;;;;0.13;0.13;;;16.60;54.10;;;;;;5072414;28;20191;-61
2023/08/13 08:22:55;;;;;;;0.00;0.00;;;16.60;54.20;;;;;;5057982;28;20199;-58
2023/08/13 08:25:26;;;;;;;0.10;0.10;;;16.60;54.10;;;;;;5072703;28;20653;-58
2023/08/13 08:27:59;;;;;;;0.10;0.10;;;16.50;54.70;;;;;;5072471;28;20462;-62
2023/08/13 08:30:29;;;;;;;0.10;0.10;;;16.60;54.80;;;;;;5071791;28;20194;-61
2023/08/13 08:33:00;;;;;;;0.10;0.10;;;16.50;54.10;;;;;;5088033;28;20259;-59
2023/08/13 08:35:31;;;;;;;0.10;0.10;;;16.60;54.20;;;;;;5092774;28;20193;-61
2023/08/13 08:38:02;;;;;;;0.00;0.00;;;16.50;54.10;;;;;;5091755;28;20236;-59
2023/08/13 08:40:33;;;;;;;0.00;0.00;;;16.50;54.10;;;;;;5091254;28;20194;-60
2023/08/13 08:43:05;;;;;;;0.00;0.00;;;16.50;54.10;;;;;;5092131;28;20198;-59
2023/08/13 08:45:37;;;;;;;0.10;0.10;;;16.50;54.40;;;;;;5090722;28;20218;-58
2023/08/13 08:48:08;;;;;;;0.10;0.10;;;16.50;54.50;;;;;;5071565;28;20202;-58
2023/08/13 08:50:39;;;;;;;0.10;0.10;;;16.50;54.40;;;;;;5070936;28;20206;-60
2023/08/13 08:53:11;;;;;;;0.10;0.10;;;16.50;54.40;;;;;;5071321;28;20231;-59
2023/08/13 08:55:43;;;;;;;0.10;0.10;;;16.50;54.40;;;;;;5071627;28;20720;-59
2023/08/13 08:58:15;;;;;;;0.10;0.10;;;16.50;54.40;;;;;;5070945;28;20563;-59
2023/08/13 09:00:46;;;;;;;0.10;0.10;;;16.50;54.40;;;;;;5071325;28;20209;-59
2023/08/13 09:03:17;;;;;;;0.00;0.00;;;16.50;54.40;;;;;;5070987;28;20186;-58
2023/08/13 09:05:47;;;;;;;0.10;0.10;;;16.50;54.40;;;;;;5071169;28;20268;-58
2023/08/13 09:08:19;;;;;;;0.03;0.03;;;16.50;54.40;;;;;;5071405;28;20187;-59
2023/08/13 09:10:49;;;;;;;0.00;0.00;;;16.50;54.30;;;;;;5072460;28;20272;-58
2023/08/13 09:13:22;;;;;;;0.10;0.10;;;16.50;54.30;;;;;;5088762;28;20676;-60
2023/08/13 09:15:55;;;;;;;0.10;0.10;;;16.50;54.30;;;;;;5091438;28;20658;-58
2023/08/13 09:18:27;;;;;;;0.00;0.00;;;16.50;54.30;;;;;;5090904;28;20194;-58
2023/08/13 09:20:59;;;;;;;0.10;0.10;;;16.50;54.40;;;;;;5091773;28;20201;-60
2023/08/13 09:23:30;;;;;;;0.00;0.00;;;16.50;54.40;;;;;;5083810;28;20666;-59
2023/08/13 09:26:01;;;;;;;0.10;0.10;;;16.50;54.40;;;;;;5070609;28;20265;-60
2023/08/13 09:28:33;;;;;;;0.00;0.00;;;16.50;54.40;;;;;;5071252;28;20217;-58
2023/08/13 09:31:04;;;;;;;0.08;0.08;;;16.50;54.40;;;;;;5070141;28;20195;-59
2023/08/13 09:33:36;;;;;;;0.00;0.00;;;16.50;54.40;;;;;;5071160;28;20199;-58
2023/08/13 09:36:08;;;;;;;0.00;0.00;;;16.50;54.40;;;;;;5070251;28;20219;-58
2023/08/13 09:38:39;;;;;;;0.10;0.10;;;16.50;54.40;;;;;;5070674;28;20200;-60
2023/08/13 09:41:13;;;;;;;0.10;0.10;;;16.40;54.30;;;;;;5071049;28;20198;-59
2023/08/13 09:43:48;;;;;;;0.10;0.10;;;16.50;54.40;;;;;;5071073;28;20244;-58
2023/08/13 09:46:22;;;;;;;0.10;0.10;;;16.50;54.40;;;;;;5070909;28;20744;-59
2023/08/13 09:48:56;;;;;;;0.10;0.10;;;16.50;54.40;;;;;;5070563;28;20209;-59
2023/08/13 09:51:32;;;;;;;0.10;0.10;;;16.40;54.30;;;;;;5071330;28;20202;-58
2023/08/13 09:54:10;;;;;;;0.10;0.10;;;16.40;54.30;;;;;;5071147;28;20241;-58
2023/08/13 09:56:47;;;;;;;0.00;0.00;;;16.40;54.30;;;;;;5072113;28;20215;-58
2023/08/13 09:59:19;;;;;;;0.00;0.00;;;16.40;54.30;;;;;;5074075;28;20194;-58
2023/08/13 10:01:50;;;;;;;0.10;0.10;;;16.40;54.30;;;;;;5074563;28;20597;-59
2023/08/13 10:04:21;;;;;;;0.00;0.00;;;16.40;54.30;;;;;;5074527;28;20589;-61
2023/08/13 10:06:53;;;;;;;0.10;0.10;;;16.40;54.30;;;;;;5074300;28;20229;-59
2023/08/13 10:09:26;;;;;;;0.08;0.08;;;16.40;54.30;;;;;;5074584;28;20205;-59
2023/08/13 10:11:57;;;;;;;0.05;0.05;;;16.40;54.30;;;;;;5075233;28;20237;-59
2023/08/13 10:14:30;;;;;;;0.10;0.10;;;16.40;54.40;;;;;;5074485;28;20202;-58
2023/08/13 10:17:04;;;;;;;0.05;0.05;;;16.40;54.30;;;;;;5061854;28;20740;-59
2023/08/13 10:19:39;;;;;;;0.00;0.00;;;16.40;54.30;;;;;;5074669;28;20199;-60
2023/08/13 10:22:11;;;;;;;0.10;0.10;;;16.40;54.30;;;;;;5074052;28;20194;-58
2023/08/13 10:24:44;;;;;;;0.00;0.00;;;16.40;54.30;;;;;;5074693;28;20246;-58
2023/08/13 10:27:16;;;;;;;0.00;0.00;;;16.40;54.40;;;;;;5074201;28;20240;-60
2023/08/13 10:29:48;;;;;;;0.10;0.10;;;16.40;54.40;;;;;;5073147;28;20198;-60
2023/08/13 10:32:24;;;;;;;0.10;0.10;;;16.40;54.30;;;;;;5074417;28;20203;-60
2023/08/13 10:34:54;;;;;;;0.10;0.10;;;16.40;54.30;;;;;;5070829;28;20206;-59
2023/08/13 10:37:26;;;;;;;0.10;0.10;;;16.40;54.30;;;;;;5085296;28;20214;-59
2023/08/13 10:40:08;;;;;;;0.10;0.10;;;16.40;54.30;;;;;;5086002;28;20187;-59
2023/08/13 10:42:55;;;;;;;0.10;0.10;;;16.40;54.30;;;;;;5073455;28;20219;-59
2023/08/13 10:45:32;;;;;;;0.10;0.10;;;16.40;54.30;;;;;;5073631;28;20187;-58
2023/08/13 10:48:04;;;;;;;0.08;0.08;;;16.40;54.30;;;;;;5074107;28;20214;-59
2023/08/13 10:50:37;;;;;;;0.10;0.10;;;16.40;54.30;;;;;;5073367;28;20563;-58
2023/08/13 10:53:10;;;;;;;0.10;0.10;;;16.40;54.40;;;;;;5073692;28;20206;-59
2023/08/13 10:55:42;;;;;;;0.03;0.03;;;16.40;54.30;;;;;;5073422;28;20195;-58
2023/08/13 10:58:26;;;;;;;0.10;0.10;;;16.40;54.40;;;;;;5073857;28;20663;-59
2023/08/13 11:01:01;;;;;;;0.10;0.10;;;16.40;54.30;;;;;;5073679;28;20203;-60
2023/08/13 11:03:33;;;;;;;0.10;0.10;;;16.40;54.30;;;;;;5073799;28;20198;-60
2023/08/13 11:06:05;;;;;;;0.10;0.10;;;16.40;54.40;;;;;;5075118;28;20218;-58
2023/08/13 11:08:40;;;;;;;0.10;0.10;;;16.40;54.30;;;;;;5092706;28;20690;-60
2023/08/13 11:11:10;;;;;;;0.10;0.10;;;16.40;54.40;;;;;;5089133;28;20561;-59
2023/08/13 11:13:41;;;;;;;0.10;0.10;;;16.40;54.30;;;;;;5074406;28;20232;-60
2023/08/13 11:16:14;;;;;;;0.00;0.00;;;16.40;54.30;;;;;;5073721;28;20218;-60
2023/08/13 11:18:44;;;;;;;0.00;0.00;;;16.40;54.30;;;;;;5074231;28;20195;-59
2023/08/13 11:21:15;;;;;;;0.10;0.10;;;16.40;54.40;;;;;;5074118;28;20206;-59
2023/08/13 11:23:46;;;;;;;0.10;0.10;;;16.40;54.40;;;;;;5073948;28;20207;-58
2023/08/13 11:26:20;;;;;;;0.10;0.10;;;16.30;54.30;;;;;;5073837;28;20253;-58
2023/08/13 11:28:51;;;;;;;0.10;0.10;;;16.30;54.40;;;;;;5073917;28;20191;-59
2023/08/13 11:31:24;;;;;;;0.10;0.10;;;16.30;54.40;;;;;;5073859;28;20430;-58
2023/08/13 11:33:54;;;;;;;0.10;0.10;;;16.30;54.30;;;;;;5073305;28;20198;-59
2023/08/13 11:36:25;;;;;;;0.00;0.00;;;16.40;54.40;;;;;;5073331;28;20219;-58
2023/08/13 11:38:56;;;;;;;0.05;0.05;;;16.40;54.40;;;;;;5073791;28;20686;-59
2023/08/13 11:41:26;;;;;;;0.03;0.03;;;16.30;54.30;;;;;;5073475;28;20194;-61
2023/08/13 11:43:57;;;;;;;0.10;0.10;;;16.30;54.30;;;;;;5073750;28;20194;-58
2023/08/13 11:46:29;;;;;;;0.10;0.10;;;16.30;54.30;;;;;;5073212;28;20228;-60
2023/08/13 11:49:04;;;;;;;0.10;0.10;;;16.30;54.30;;;;;;5073288;28;20202;-63
2023/08/13 11:51:35;;;;;;;0.10;0.10;;;16.30;54.30;;;;;;5073210;28;20198;-61
2023/08/13 11:54:10;;;;;;;0.10;0.10;;;16.30;54.30;;;;;;5073244;28;20568;-60
2023/08/13 11:56:42;;;;;;;0.10;0.10;;;16.30;54.30;;;;;;5073400;28;20218;-60
2023/08/13 11:59:12;;;;;;;0.10;0.10;;;16.30;54.30;;;;;;5073227;28;20665;-59
2023/08/13 12:01:52;;;;;;;0.10;0.10;;;16.30;54.30;;;;;;5073087;28;20202;-58
2023/08/13 12:04:24;;;;;;;0.10;0.10;;;16.30;54.30;;;;;;5073537;28;20191;-61
2023/08/13 12:06:55;;;;;;;0.10;0.10;;;16.30;54.30;;;;;;5072732;28;20674;-61
2023/08/13 12:09:26;;;;;;;0.10;0.10;;;16.30;54.30;;;;;;5073019;28;20202;-60
2023/08/13 12:11:57;;;;;;;0.10;0.10;;;16.30;54.40;;;;;;5066296;28;20218;-59
2023/08/13 12:14:28;;;;;;;0.10;0.10;;;16.30;54.40;;;;;;5053475;28;20199;-59
2023/08/13 12:17:01;;;;;;;0.10;0.10;;;16.30;54.30;;;;;;5053072;28;20228;-60
2023/08/13 12:19:31;;;;;;;0.00;0.00;;;16.30;54.30;;;;;;5052686;28;20195;-58
2023/08/13 12:22:02;;;;;;;0.10;0.10;;;16.20;54.30;;;;;;5052912;28;20231;-59
2023/08/13 12:24:33;;;;;;;0.10;0.10;;;16.20;54.40;;;;;;5069156;28;20198;-60
2023/08/13 12:27:04;;;;;;;0.10;0.10;;;16.30;54.30;;;;;;5072665;28;20222;-59
2023/08/13 12:29:34;;;;;;;0.08;0.08;;;16.20;54.30;;;;;;5072754;28;20207;-59
2023/08/13 12:32:07;;;;;;;0.10;0.10;;;16.20;54.30;;;;;;5072568;28;20199;-60
2023/08/13 12:34:38;;;;;;;0.08;0.08;;;16.20;54.30;;;;;;5070332;28;20195;-61
2023/08/13 12:37:08;;;;;;;0.00;0.00;;;16.20;54.30;;;;;;5072771;28;20678;-59
2023/08/13 12:39:39;;;;;;;0.08;0.08;;;16.20;54.30;;;;;;5072114;28;20260;-60
2023/08/13 12:42:10;;;;;;;0.05;0.05;;;16.20;54.30;;;;;;5072246;28;20202;-61
2023/08/13 12:44:40;;;;;;;0.03;0.03;;;16.20;54.30;;;;;;5072211;28;20207;-59
2023/08/13 12:47:13;;;;;;;0.10;0.10;;;16.20;54.30;;;;;;5072346;28;20459;-60
2023/08/13 12:49:43;;;;;;;0.10;0.10;;;16.20;54.30;;;;;;5072222;28;20202;-59
2023/08/13 12:52:14;;;;;;;0.10;0.10;;;16.20;54.30;;;;;;5072156;28;20598;-58
2023/08/13 12:54:45;;;;;;;0.00;0.00;;;16.20;54.30;;;;;;5072089;28;20552;-62
2023/08/13 12:57:15;;;;;;;0.08;0.08;;;16.20;54.30;;;;;;5072231;28;20214;-57
2023/08/13 12:59:46;;;;;;;0.10;0.10;;;16.20;54.40;;;;;;5071887;28;20199;-61
2023/08/13 13:02:19;;;;;;;0.00;0.00;;;16.10;54.90;;;;;;5071891;28;20218;-59
2023/08/13 13:04:50;;;;;;;0.08;0.08;;;16.10;54.30;;;;;;5072246;28;20195;-58
2023/08/13 13:07:21;;;;;;;0.00;0.00;;;16.10;54.30;;;;;;5071951;28;20270;-61
2023/08/13 13:09:52;;;;;;;0.10;0.10;;;16.10;54.30;;;;;;5072263;28;20191;-59